sensor_id;sensor_type;location;lat;lon;timestamp;P1;durP1;ratioP1;P2;durP2;ratioP2
86683;SDS011;77427;42.228;24.728;2024-03-22T00:01:05;5.75;;;3.90;;
86683;SDS011;77427;42.228;24.728;2024-03-22T00:03:30;6.60;;;4.72;;
86683;SDS011;77427;42.228;24.728;2024-03-22T00:05:56;6.57;;;4.72;;
86683;SDS011;77427;42.228;24.728;2024-03-22T00:08:22;5.00;;;4.05;;
86683;SDS011;77427;42.228;24.728;2024-03-22T00:10:47;6.35;;;4.22;;
86683;SDS011;77427;42.228;24.728;2024-03-22T00:13:13;5.03;;;3.95;;
86683;SDS011;77427;42.228;24.728;2024-03-22T00:15:38;6.00;;;3.88;;
86683;SDS011;77427;42.228;24.728;2024-03-22T00:18:04;5.50;;;3.85;;
86683;SDS011;77427;42.228;24.728;2024-03-22T00:20:29;6.68;;;4.05;;
86683;SDS011;77427;42.228;24.728;2024-03-22T00:22:54;5.63;;;3.95;;
86683;SDS011;77427;42.228;24.728;2024-03-22T00:25:20;5.20;;;4.30;;
86683;SDS011;77427;42.228;24.728;2024-03-22T00:27:45;4.97;;;3.63;;
86683;SDS011;77427;42.228;24.728;2024-03-22T00:30:11;5.68;;;4.03;;
86683;SDS011;77427;42.228;24.728;2024-03-22T00:32:36;5.05;;;3.72;;
86683;SDS011;77427;42.228;24.728;2024-03-22T00:35:01;5.18;;;3.55;;
86683;SDS011;77427;42.228;24.728;2024-03-22T00:37:27;6.15;;;3.55;;
86683;SDS011;77427;42.228;24.728;2024-03-22T00:39:53;4.82;;;3.67;;
86683;SDS011;77427;42.228;24.728;2024-03-22T00:42:18;5.50;;;3.70;;
86683;SDS011;77427;42.228;24.728;2024-03-22T00:44:43;5.55;;;4.15;;
86683;SDS011;77427;42.228;24.728;2024-03-22T00:47:09;6.38;;;3.95;;
86683;SDS011;77427;42.228;24.728;2024-03-22T00:49:34;3.78;;;3.20;;
86683;SDS011;77427;42.228;24.728;2024-03-22T00:51:59;6.07;;;4.28;;
86683;SDS011;77427;42.228;24.728;2024-03-22T00:54:25;4.68;;;3.88;;
86683;SDS011;77427;42.228;24.728;2024-03-22T00:56:50;4.50;;;3.45;;
86683;SDS011;77427;42.228;24.728;2024-03-22T00:59:16;5.78;;;3.67;;
86683;SDS011;77427;42.228;24.728;2024-03-22T01:01:41;6.10;;;3.78;;
86683;SDS011;77427;42.228;24.728;2024-03-22T01:04:07;5.18;;;3.67;;
86683;SDS011;77427;42.228;24.728;2024-03-22T01:06:34;5.43;;;3.55;;
86683;SDS011;77427;42.228;24.728;2024-03-22T01:08:59;5.20;;;3.70;;
86683;SDS011;77427;42.228;24.728;2024-03-22T01:11:25;5.25;;;3.85;;
86683;SDS011;77427;42.228;24.728;2024-03-22T01:13:50;5.15;;;3.45;;
86683;SDS011;77427;42.228;24.728;2024-03-22T01:16:15;5.38;;;3.67;;
86683;SDS011;77427;42.228;24.728;2024-03-22T01:18:41;5.63;;;3.35;;
86683;SDS011;77427;42.228;24.728;2024-03-22T01:21:07;5.13;;;3.45;;
86683;SDS011;77427;42.228;24.728;2024-03-22T01:23:32;4.53;;;3.20;;
86683;SDS011;77427;42.228;24.728;2024-03-22T01:25:57;4.80;;;3.20;;
86683;SDS011;77427;42.228;24.728;2024-03-22T01:28:23;5.10;;;3.67;;
86683;SDS011;77427;42.228;24.728;2024-03-22T01:30:48;5.32;;;3.10;;
86683;SDS011;77427;42.228;24.728;2024-03-22T01:33:14;4.20;;;3.05;;
86683;SDS011;77427;42.228;24.728;2024-03-22T01:35:39;4.82;;;3.33;;
86683;SDS011;77427;42.228;24.728;2024-03-22T01:38:04;4.30;;;2.65;;
86683;SDS011;77427;42.228;24.728;2024-03-22T01:40:30;5.43;;;3.30;;
86683;SDS011;77427;42.228;24.728;2024-03-22T01:42:56;5.43;;;3.42;;
86683;SDS011;77427;42.228;24.728;2024-03-22T01:45:22;4.43;;;3.35;;
86683;SDS011;77427;42.228;24.728;2024-03-22T01:47:49;3.85;;;2.97;;
86683;SDS011;77427;42.228;24.728;2024-03-22T01:50:16;4.30;;;3.17;;
86683;SDS011;77427;42.228;24.728;2024-03-22T01:52:41;4.10;;;2.88;;
86683;SDS011;77427;42.228;24.728;2024-03-22T01:55:07;4.60;;;3.22;;
86683;SDS011;77427;42.228;24.728;2024-03-22T01:57:33;4.30;;;3.17;;
86683;SDS011;77427;42.228;24.728;2024-03-22T01:59:59;5.22;;;3.10;;
86683;SDS011;77427;42.228;24.728;2024-03-22T02:02:24;4.53;;;3.00;;
86683;SDS011;77427;42.228;24.728;2024-03-22T02:04:53;3.80;;;2.75;;
86683;SDS011;77427;42.228;24.728;2024-03-22T02:07:18;4.35;;;2.92;;
86683;SDS011;77427;42.228;24.728;2024-03-22T02:09:43;3.97;;;2.80;;
86683;SDS011;77427;42.228;24.728;2024-03-22T02:12:09;4.00;;;2.42;;
86683;SDS011;77427;42.228;24.728;2024-03-22T02:14:36;3.95;;;2.88;;
86683;SDS011;77427;42.228;24.728;2024-03-22T02:17:01;3.83;;;2.63;;
86683;SDS011;77427;42.228;24.728;2024-03-22T02:19:26;4.18;;;2.60;;
86683;SDS011;77427;42.228;24.728;2024-03-22T02:21:52;3.47;;;2.67;;
86683;SDS011;77427;42.228;24.728;2024-03-22T02:24:17;4.85;;;2.80;;
86683;SDS011;77427;42.228;24.728;2024-03-22T02:26:42;4.00;;;2.83;;
86683;SDS011;77427;42.228;24.728;2024-03-22T02:29:08;3.95;;;2.78;;
86683;SDS011;77427;42.228;24.728;2024-03-22T02:31:33;4.80;;;2.95;;
86683;SDS011;77427;42.228;24.728;2024-03-22T02:33:59;3.70;;;2.88;;
86683;SDS011;77427;42.228;24.728;2024-03-22T02:36:24;5.00;;;2.97;;
86683;SDS011;77427;42.228;24.728;2024-03-22T02:38:49;3.53;;;2.60;;
86683;SDS011;77427;42.228;24.728;2024-03-22T02:41:15;3.53;;;2.63;;
86683;SDS011;77427;42.228;24.728;2024-03-22T02:43:40;4.22;;;2.80;;
86683;SDS011;77427;42.228;24.728;2024-03-22T02:46:05;4.95;;;2.65;;
86683;SDS011;77427;42.228;24.728;2024-03-22T02:48:31;4.57;;;3.10;;
86683;SDS011;77427;42.228;24.728;2024-03-22T02:50:57;3.70;;;2.63;;
86683;SDS011;77427;42.228;24.728;2024-03-22T02:53:22;3.60;;;2.33;;
86683;SDS011;77427;42.228;24.728;2024-03-22T02:55:48;3.85;;;2.90;;
86683;SDS011;77427;42.228;24.728;2024-03-22T02:58:13;4.05;;;2.80;;
86683;SDS011;77427;42.228;24.728;2024-03-22T03:00:39;4.40;;;2.78;;
86683;SDS011;77427;42.228;24.728;2024-03-22T03:03:05;3.90;;;2.58;;
86683;SDS011;77427;42.228;24.728;2024-03-22T03:05:31;3.30;;;2.35;;
86683;SDS011;77427;42.228;24.728;2024-03-22T03:07:56;4.38;;;2.97;;
86683;SDS011;77427;42.228;24.728;2024-03-22T03:10:22;4.65;;;2.45;;
86683;SDS011;77427;42.228;24.728;2024-03-22T03:12:47;3.88;;;2.60;;
86683;SDS011;77427;42.228;24.728;2024-03-22T03:15:12;4.05;;;2.97;;
86683;SDS011;77427;42.228;24.728;2024-03-22T03:17:38;4.55;;;2.70;;
86683;SDS011;77427;42.228;24.728;2024-03-22T03:20:03;4.07;;;2.92;;
86683;SDS011;77427;42.228;24.728;2024-03-22T03:22:33;5.00;;;3.00;;
86683;SDS011;77427;42.228;24.728;2024-03-22T03:24:59;4.55;;;2.90;;
86683;SDS011;77427;42.228;24.728;2024-03-22T03:27:25;5.10;;;3.35;;
86683;SDS011;77427;42.228;24.728;2024-03-22T03:29:50;4.70;;;3.10;;
86683;SDS011;77427;42.228;24.728;2024-03-22T03:32:15;5.28;;;3.40;;
86683;SDS011;77427;42.228;24.728;2024-03-22T03:34:41;5.70;;;3.30;;
86683;SDS011;77427;42.228;24.728;2024-03-22T03:37:06;4.50;;;2.85;;
86683;SDS011;77427;42.228;24.728;2024-03-22T03:39:31;4.75;;;2.88;;
86683;SDS011;77427;42.228;24.728;2024-03-22T03:41:57;4.47;;;3.10;;
86683;SDS011;77427;42.228;24.728;2024-03-22T03:44:22;5.53;;;3.20;;
86683;SDS011;77427;42.228;24.728;2024-03-22T03:46:47;4.50;;;2.88;;
86683;SDS011;77427;42.228;24.728;2024-03-22T03:49:13;5.00;;;3.60;;
86683;SDS011;77427;42.228;24.728;2024-03-22T03:51:38;5.55;;;3.08;;
86683;SDS011;77427;42.228;24.728;2024-03-22T03:54:04;4.72;;;3.10;;
86683;SDS011;77427;42.228;24.728;2024-03-22T03:56:29;4.32;;;2.70;;
86683;SDS011;77427;42.228;24.728;2024-03-22T03:58:55;7.53;;;3.67;;
86683;SDS011;77427;42.228;24.728;2024-03-22T04:01:20;5.15;;;2.97;;
86683;SDS011;77427;42.228;24.728;2024-03-22T04:03:48;5.28;;;3.30;;
86683;SDS011;77427;42.228;24.728;2024-03-22T04:06:13;4.45;;;3.00;;
86683;SDS011;77427;42.228;24.728;2024-03-22T04:08:39;5.25;;;2.92;;
86683;SDS011;77427;42.228;24.728;2024-03-22T04:11:04;4.75;;;3.45;;
86683;SDS011;77427;42.228;24.728;2024-03-22T04:13:30;4.93;;;3.38;;
86683;SDS011;77427;42.228;24.728;2024-03-22T04:15:58;5.63;;;3.33;;
86683;SDS011;77427;42.228;24.728;2024-03-22T04:18:24;4.07;;;2.80;;
86683;SDS011;77427;42.228;24.728;2024-03-22T04:20:55;6.60;;;3.50;;
86683;SDS011;77427;42.228;24.728;2024-03-22T04:23:22;4.63;;;3.00;;
86683;SDS011;77427;42.228;24.728;2024-03-22T04:25:52;4.22;;;3.13;;
86683;SDS011;77427;42.228;24.728;2024-03-22T04:28:18;4.60;;;3.10;;
86683;SDS011;77427;42.228;24.728;2024-03-22T04:30:43;5.15;;;3.17;;
86683;SDS011;77427;42.228;24.728;2024-03-22T04:33:09;4.22;;;3.22;;
86683;SDS011;77427;42.228;24.728;2024-03-22T04:35:34;5.90;;;3.72;;
86683;SDS011;77427;42.228;24.728;2024-03-22T04:37:59;6.78;;;4.00;;
86683;SDS011;77427;42.228;24.728;2024-03-22T04:40:25;6.55;;;3.70;;
86683;SDS011;77427;42.228;24.728;2024-03-22T04:42:51;5.65;;;4.00;;
86683;SDS011;77427;42.228;24.728;2024-03-22T04:45:17;6.50;;;4.10;;
86683;SDS011;77427;42.228;24.728;2024-03-22T04:47:42;6.43;;;3.45;;
86683;SDS011;77427;42.228;24.728;2024-03-22T04:50:08;5.15;;;3.40;;
86683;SDS011;77427;42.228;24.728;2024-03-22T04:52:34;5.22;;;3.90;;
86683;SDS011;77427;42.228;24.728;2024-03-22T04:54:59;8.00;;;4.43;;
86683;SDS011;77427;42.228;24.728;2024-03-22T04:57:26;7.63;;;3.80;;
86683;SDS011;77427;42.228;24.728;2024-03-22T04:59:52;7.60;;;3.80;;
86683;SDS011;77427;42.228;24.728;2024-03-22T05:02:17;6.28;;;3.88;;
86683;SDS011;77427;42.228;24.728;2024-03-22T05:04:43;7.90;;;4.47;;
86683;SDS011;77427;42.228;24.728;2024-03-22T05:07:08;7.50;;;4.22;;
86683;SDS011;77427;42.228;24.728;2024-03-22T05:09:34;6.50;;;4.60;;
86683;SDS011;77427;42.228;24.728;2024-03-22T05:11:59;5.70;;;3.60;;
86683;SDS011;77427;42.228;24.728;2024-03-22T05:14:24;5.57;;;3.60;;
86683;SDS011;77427;42.228;24.728;2024-03-22T05:16:50;9.27;;;4.30;;
86683;SDS011;77427;42.228;24.728;2024-03-22T05:19:15;6.47;;;4.43;;
86683;SDS011;77427;42.228;24.728;2024-03-22T05:21:40;7.85;;;4.47;;
86683;SDS011;77427;42.228;24.728;2024-03-22T05:24:06;7.18;;;4.20;;
86683;SDS011;77427;42.228;24.728;2024-03-22T05:26:32;7.85;;;4.18;;
86683;SDS011;77427;42.228;24.728;2024-03-22T05:29:01;7.80;;;5.05;;
86683;SDS011;77427;42.228;24.728;2024-03-22T05:31:27;8.32;;;5.43;;
86683;SDS011;77427;42.228;24.728;2024-03-22T05:33:53;7.43;;;5.00;;
86683;SDS011;77427;42.228;24.728;2024-03-22T05:36:19;10.02;;;5.75;;
86683;SDS011;77427;42.228;24.728;2024-03-22T05:38:44;7.43;;;4.57;;
86683;SDS011;77427;42.228;24.728;2024-03-22T05:41:09;8.07;;;5.22;;
86683;SDS011;77427;42.228;24.728;2024-03-22T05:43:35;8.70;;;4.88;;
86683;SDS011;77427;42.228;24.728;2024-03-22T05:46:00;11.20;;;5.72;;
86683;SDS011;77427;42.228;24.728;2024-03-22T05:48:26;8.32;;;4.97;;
86683;SDS011;77427;42.228;24.728;2024-03-22T05:50:51;7.43;;;4.97;;
86683;SDS011;77427;42.228;24.728;2024-03-22T05:53:17;7.93;;;4.82;;
86683;SDS011;77427;42.228;24.728;2024-03-22T05:55:43;7.93;;;5.10;;
86683;SDS011;77427;42.228;24.728;2024-03-22T05:58:08;8.25;;;5.57;;
86683;SDS011;77427;42.228;24.728;2024-03-22T06:00:34;7.82;;;5.28;;
86683;SDS011;77427;42.228;24.728;2024-03-22T06:02:59;8.73;;;5.80;;
86683;SDS011;77427;42.228;24.728;2024-03-22T06:05:25;9.90;;;5.65;;
86683;SDS011;77427;42.228;24.728;2024-03-22T06:07:50;9.45;;;5.40;;
86683;SDS011;77427;42.228;24.728;2024-03-22T06:10:16;8.65;;;5.70;;
86683;SDS011;77427;42.228;24.728;2024-03-22T06:12:42;11.95;;;5.80;;
86683;SDS011;77427;42.228;24.728;2024-03-22T06:15:09;7.65;;;4.93;;
86683;SDS011;77427;42.228;24.728;2024-03-22T06:17:35;8.73;;;5.80;;
86683;SDS011;77427;42.228;24.728;2024-03-22T06:20:00;8.48;;;5.03;;
86683;SDS011;77427;42.228;24.728;2024-03-22T06:22:26;9.90;;;5.55;;
86683;SDS011;77427;42.228;24.728;2024-03-22T06:24:51;9.63;;;5.85;;
86683;SDS011;77427;42.228;24.728;2024-03-22T06:27:18;7.50;;;5.63;;
86683;SDS011;77427;42.228;24.728;2024-03-22T06:29:43;8.25;;;5.57;;
86683;SDS011;77427;42.228;24.728;2024-03-22T06:32:08;8.27;;;5.60;;
86683;SDS011;77427;42.228;24.728;2024-03-22T06:34:34;8.10;;;5.43;;
86683;SDS011;77427;42.228;24.728;2024-03-22T06:36:59;9.35;;;5.60;;
86683;SDS011;77427;42.228;24.728;2024-03-22T06:39:25;9.38;;;5.25;;
86683;SDS011;77427;42.228;24.728;2024-03-22T06:41:50;8.50;;;5.63;;
86683;SDS011;77427;42.228;24.728;2024-03-22T06:44:16;7.95;;;5.50;;
86683;SDS011;77427;42.228;24.728;2024-03-22T06:46:41;6.75;;;4.88;;
86683;SDS011;77427;42.228;24.728;2024-03-22T06:49:06;10.00;;;5.40;;
86683;SDS011;77427;42.228;24.728;2024-03-22T06:51:32;8.32;;;5.43;;
86683;SDS011;77427;42.228;24.728;2024-03-22T06:53:57;9.35;;;5.60;;
86683;SDS011;77427;42.228;24.728;2024-03-22T06:56:23;9.52;;;5.68;;
86683;SDS011;77427;42.228;24.728;2024-03-22T06:58:48;9.20;;;5.00;;
86683;SDS011;77427;42.228;24.728;2024-03-22T07:01:13;8.23;;;4.82;;
86683;SDS011;77427;42.228;24.728;2024-03-22T07:03:39;9.23;;;5.30;;
86683;SDS011;77427;42.228;24.728;2024-03-22T07:06:04;8.30;;;4.68;;
86683;SDS011;77427;42.228;24.728;2024-03-22T07:08:32;7.75;;;5.13;;
86683;SDS011;77427;42.228;24.728;2024-03-22T07:10:58;8.75;;;5.18;;
86683;SDS011;77427;42.228;24.728;2024-03-22T07:13:23;8.68;;;5.28;;
86683;SDS011;77427;42.228;24.728;2024-03-22T07:15:48;7.00;;;4.90;;
86683;SDS011;77427;42.228;24.728;2024-03-22T07:18:14;9.10;;;4.63;;
86683;SDS011;77427;42.228;24.728;2024-03-22T07:20:40;7.65;;;5.13;;
86683;SDS011;77427;42.228;24.728;2024-03-22T07:23:06;8.95;;;5.43;;
86683;SDS011;77427;42.228;24.728;2024-03-22T07:25:32;6.80;;;4.70;;
86683;SDS011;77427;42.228;24.728;2024-03-22T07:27:57;7.22;;;5.25;;
86683;SDS011;77427;42.228;24.728;2024-03-22T07:30:23;8.55;;;4.72;;
86683;SDS011;77427;42.228;24.728;2024-03-22T07:32:48;6.70;;;5.03;;
86683;SDS011;77427;42.228;24.728;2024-03-22T07:35:14;7.55;;;4.95;;
86683;SDS011;77427;42.228;24.728;2024-03-22T07:37:39;8.10;;;4.57;;
86683;SDS011;77427;42.228;24.728;2024-03-22T07:40:05;9.60;;;5.25;;
86683;SDS011;77427;42.228;24.728;2024-03-22T07:42:31;7.45;;;5.03;;
86683;SDS011;77427;42.228;24.728;2024-03-22T07:44:57;8.80;;;4.88;;
86683;SDS011;77427;42.228;24.728;2024-03-22T07:47:22;6.47;;;4.72;;
86683;SDS011;77427;42.228;24.728;2024-03-22T07:49:48;6.60;;;4.78;;
86683;SDS011;77427;42.228;24.728;2024-03-22T07:52:13;6.93;;;4.97;;
86683;SDS011;77427;42.228;24.728;2024-03-22T07:54:39;7.90;;;4.90;;
86683;SDS011;77427;42.228;24.728;2024-03-22T07:57:04;6.80;;;4.65;;
86683;SDS011;77427;42.228;24.728;2024-03-22T07:59:29;9.65;;;4.88;;
86683;SDS011;77427;42.228;24.728;2024-03-22T08:01:55;7.75;;;4.68;;
86683;SDS011;77427;42.228;24.728;2024-03-22T08:04:22;7.55;;;4.93;;
86683;SDS011;77427;42.228;24.728;2024-03-22T08:06:47;7.45;;;4.72;;
86683;SDS011;77427;42.228;24.728;2024-03-22T08:09:13;7.32;;;4.82;;
86683;SDS011;77427;42.228;24.728;2024-03-22T08:11:38;7.15;;;5.18;;
86683;SDS011;77427;42.228;24.728;2024-03-22T08:14:03;7.93;;;4.93;;
86683;SDS011;77427;42.228;24.728;2024-03-22T08:16:29;9.20;;;4.75;;
86683;SDS011;77427;42.228;24.728;2024-03-22T08:18:55;5.40;;;3.85;;
86683;SDS011;77427;42.228;24.728;2024-03-22T08:21:21;6.95;;;4.65;;
86683;SDS011;77427;42.228;24.728;2024-03-22T08:23:47;7.57;;;4.40;;
86683;SDS011;77427;42.228;24.728;2024-03-22T08:26:13;6.75;;;5.28;;
86683;SDS011;77427;42.228;24.728;2024-03-22T08:28:38;7.05;;;4.75;;
86683;SDS011;77427;42.228;24.728;2024-03-22T08:31:04;7.15;;;5.30;;
86683;SDS011;77427;42.228;24.728;2024-03-22T08:33:30;6.95;;;4.70;;
86683;SDS011;77427;42.228;24.728;2024-03-22T08:35:55;6.88;;;4.47;;
86683;SDS011;77427;42.228;24.728;2024-03-22T08:38:21;7.45;;;4.85;;
86683;SDS011;77427;42.228;24.728;2024-03-22T08:40:46;7.65;;;4.45;;
86683;SDS011;77427;42.228;24.728;2024-03-22T08:43:12;6.65;;;4.57;;
86683;SDS011;77427;42.228;24.728;2024-03-22T08:45:37;7.20;;;4.63;;
86683;SDS011;77427;42.228;24.728;2024-03-22T08:48:03;6.18;;;4.15;;
86683;SDS011;77427;42.228;24.728;2024-03-22T08:50:28;7.97;;;5.28;;
86683;SDS011;77427;42.228;24.728;2024-03-22T08:52:54;6.75;;;4.70;;
86683;SDS011;77427;42.228;24.728;2024-03-22T08:55:19;6.85;;;4.25;;
86683;SDS011;77427;42.228;24.728;2024-03-22T08:57:45;6.50;;;4.28;;
86683;SDS011;77427;42.228;24.728;2024-03-22T09:00:10;7.28;;;4.82;;
86683;SDS011;77427;42.228;24.728;2024-03-22T09:02:37;6.15;;;3.90;;
86683;SDS011;77427;42.228;24.728;2024-03-22T09:05:03;6.45;;;4.38;;
86683;SDS011;77427;42.228;24.728;2024-03-22T09:07:29;6.28;;;4.20;;
86683;SDS011;77427;42.228;24.728;2024-03-22T09:09:55;7.55;;;4.93;;
86683;SDS011;77427;42.228;24.728;2024-03-22T09:12:21;6.72;;;4.45;;
86683;SDS011;77427;42.228;24.728;2024-03-22T09:14:46;7.65;;;4.25;;
86683;SDS011;77427;42.228;24.728;2024-03-22T09:17:12;7.50;;;4.57;;
86683;SDS011;77427;42.228;24.728;2024-03-22T09:19:37;5.95;;;4.57;;
86683;SDS011;77427;42.228;24.728;2024-03-22T09:22:03;6.65;;;4.55;;
86683;SDS011;77427;42.228;24.728;2024-03-22T09:24:28;6.60;;;4.57;;
86683;SDS011;77427;42.228;24.728;2024-03-22T09:26:54;5.68;;;4.22;;
86683;SDS011;77427;42.228;24.728;2024-03-22T09:29:19;5.47;;;3.50;;
86683;SDS011;77427;42.228;24.728;2024-03-22T09:31:44;6.07;;;4.25;;
86683;SDS011;77427;42.228;24.728;2024-03-22T09:34:11;9.10;;;3.78;;
86683;SDS011;77427;42.228;24.728;2024-03-22T09:36:37;3.88;;;3.30;;
86683;SDS011;77427;42.228;24.728;2024-03-22T09:39:03;4.50;;;3.38;;
86683;SDS011;77427;42.228;24.728;2024-03-22T09:41:29;5.07;;;3.85;;
86683;SDS011;77427;42.228;24.728;2024-03-22T09:43:57;6.75;;;4.20;;
86683;SDS011;77427;42.228;24.728;2024-03-22T09:46:24;6.40;;;4.30;;
86683;SDS011;77427;42.228;24.728;2024-03-22T09:48:50;5.53;;;3.78;;
86683;SDS011;77427;42.228;24.728;2024-03-22T09:51:17;9.82;;;4.93;;
86683;SDS011;77427;42.228;24.728;2024-03-22T09:53:46;6.18;;;4.60;;
86683;SDS011;77427;42.228;24.728;2024-03-22T09:58:40;5.68;;;3.85;;
86683;SDS011;77427;42.228;24.728;2024-03-22T10:01:07;7.10;;;4.10;;
86683;SDS011;77427;42.228;24.728;2024-03-22T10:03:32;5.15;;;3.85;;
86683;SDS011;77427;42.228;24.728;2024-03-22T10:05:58;5.22;;;3.42;;
86683;SDS011;77427;42.228;24.728;2024-03-22T10:08:23;7.22;;;4.43;;
86683;SDS011;77427;42.228;24.728;2024-03-22T10:10:48;7.10;;;4.28;;
86683;SDS011;77427;42.228;24.728;2024-03-22T10:13:14;5.90;;;3.70;;
86683;SDS011;77427;42.228;24.728;2024-03-22T10:15:39;6.45;;;4.40;;
86683;SDS011;77427;42.228;24.728;2024-03-22T10:18:05;5.07;;;3.70;;
86683;SDS011;77427;42.228;24.728;2024-03-22T10:20:30;6.13;;;3.90;;
86683;SDS011;77427;42.228;24.728;2024-03-22T10:22:56;6.93;;;4.30;;
86683;SDS011;77427;42.228;24.728;2024-03-22T10:25:26;6.28;;;4.38;;
86683;SDS011;77427;42.228;24.728;2024-03-22T10:27:53;5.22;;;3.58;;
86683;SDS011;77427;42.228;24.728;2024-03-22T10:30:19;5.43;;;3.65;;
86683;SDS011;77427;42.228;24.728;2024-03-22T10:32:46;5.65;;;3.72;;
86683;SDS011;77427;42.228;24.728;2024-03-22T10:35:13;8.25;;;4.28;;
86683;SDS011;77427;42.228;24.728;2024-03-22T10:37:39;5.60;;;4.30;;
86683;SDS011;77427;42.228;24.728;2024-03-22T10:40:05;6.38;;;3.63;;
86683;SDS011;77427;42.228;24.728;2024-03-22T10:42:33;6.88;;;4.07;;
86683;SDS011;77427;42.228;24.728;2024-03-22T10:44:59;6.63;;;4.45;;
86683;SDS011;77427;42.228;24.728;2024-03-22T10:47:24;5.63;;;4.03;;
86683;SDS011;77427;42.228;24.728;2024-03-22T10:49:57;6.00;;;3.72;;
86683;SDS011;77427;42.228;24.728;2024-03-22T10:52:35;6.45;;;4.50;;
86683;SDS011;77427;42.228;24.728;2024-03-22T10:55:05;5.95;;;3.83;;
86683;SDS011;77427;42.228;24.728;2024-03-22T10:57:33;5.65;;;3.97;;
86683;SDS011;77427;42.228;24.728;2024-03-22T11:00:03;7.80;;;4.10;;
86683;SDS011;77427;42.228;24.728;2024-03-22T11:02:35;5.15;;;3.55;;
86683;SDS011;77427;42.228;24.728;2024-03-22T11:05:01;5.85;;;4.13;;
86683;SDS011;77427;42.228;24.728;2024-03-22T11:07:29;4.90;;;3.50;;
86683;SDS011;77427;42.228;24.728;2024-03-22T11:10:01;6.72;;;4.15;;
86683;SDS011;77427;42.228;24.728;2024-03-22T11:12:28;5.60;;;4.10;;
86683;SDS011;77427;42.228;24.728;2024-03-22T11:14:58;6.28;;;3.65;;
86683;SDS011;77427;42.228;24.728;2024-03-22T11:18:27;5.55;;;3.45;;
86683;SDS011;77427;42.228;24.728;2024-03-22T11:20:53;4.90;;;3.30;;
86683;SDS011;77427;42.228;24.728;2024-03-22T11:23:19;6.43;;;3.95;;
86683;SDS011;77427;42.228;24.728;2024-03-22T11:25:44;4.22;;;2.63;;
86683;SDS011;77427;42.228;24.728;2024-03-22T11:28:11;5.90;;;3.17;;
86683;SDS011;77427;42.228;24.728;2024-03-22T11:30:37;5.70;;;3.25;;
86683;SDS011;77427;42.228;24.728;2024-03-22T11:33:03;5.60;;;3.50;;
86683;SDS011;77427;42.228;24.728;2024-03-22T11:35:29;4.65;;;3.38;;
86683;SDS011;77427;42.228;24.728;2024-03-22T11:37:55;4.57;;;3.30;;
86683;SDS011;77427;42.228;24.728;2024-03-22T11:40:21;6.05;;;3.13;;
86683;SDS011;77427;42.228;24.728;2024-03-22T11:42:49;6.60;;;3.95;;
86683;SDS011;77427;42.228;24.728;2024-03-22T11:45:18;5.40;;;3.58;;
86683;SDS011;77427;42.228;24.728;2024-03-22T11:47:45;4.97;;;3.00;;
86683;SDS011;77427;42.228;24.728;2024-03-22T11:50:12;5.18;;;3.03;;
86683;SDS011;77427;42.228;24.728;2024-03-22T11:52:40;4.38;;;3.05;;
86683;SDS011;77427;42.228;24.728;2024-03-22T11:55:11;4.72;;;2.72;;
86683;SDS011;77427;42.228;24.728;2024-03-22T11:57:37;4.43;;;2.67;;
86683;SDS011;77427;42.228;24.728;2024-03-22T12:00:03;4.20;;;2.80;;
86683;SDS011;77427;42.228;24.728;2024-03-22T12:02:37;5.03;;;3.00;;
86683;SDS011;77427;42.228;24.728;2024-03-22T12:05:03;4.63;;;2.58;;
86683;SDS011;77427;42.228;24.728;2024-03-22T12:07:30;4.07;;;2.50;;
86683;SDS011;77427;42.228;24.728;2024-03-22T12:09:55;4.75;;;2.88;;
86683;SDS011;77427;42.228;24.728;2024-03-22T12:12:21;5.82;;;2.65;;
86683;SDS011;77427;42.228;24.728;2024-03-22T12:14:47;4.50;;;2.67;;
86683;SDS011;77427;42.228;24.728;2024-03-22T12:17:16;4.15;;;2.75;;
86683;SDS011;77427;42.228;24.728;2024-03-22T12:19:41;5.25;;;3.00;;
86683;SDS011;77427;42.228;24.728;2024-03-22T12:22:07;5.25;;;3.00;;
86683;SDS011;77427;42.228;24.728;2024-03-22T12:24:32;3.75;;;2.47;;
86683;SDS011;77427;42.228;24.728;2024-03-22T12:26:58;3.72;;;2.28;;
86683;SDS011;77427;42.228;24.728;2024-03-22T12:29:23;5.00;;;2.70;;
86683;SDS011;77427;42.228;24.728;2024-03-22T12:31:49;5.30;;;2.47;;
86683;SDS011;77427;42.228;24.728;2024-03-22T12:34:15;4.25;;;2.28;;
86683;SDS011;77427;42.228;24.728;2024-03-22T12:36:41;4.35;;;2.50;;
86683;SDS011;77427;42.228;24.728;2024-03-22T12:39:07;4.80;;;2.67;;
86683;SDS011;77427;42.228;24.728;2024-03-22T12:41:33;5.85;;;2.83;;
86683;SDS011;77427;42.228;24.728;2024-03-22T12:43:59;4.57;;;2.35;;
86683;SDS011;77427;42.228;24.728;2024-03-22T12:46:25;4.45;;;2.42;;
86683;SDS011;77427;42.228;24.728;2024-03-22T12:48:51;4.35;;;2.55;;
86683;SDS011;77427;42.228;24.728;2024-03-22T12:51:16;3.50;;;2.22;;
86683;SDS011;77427;42.228;24.728;2024-03-22T12:53:42;3.72;;;2.65;;
86683;SDS011;77427;42.228;24.728;2024-03-22T12:56:07;4.90;;;2.42;;
86683;SDS011;77427;42.228;24.728;2024-03-22T12:58:33;4.20;;;2.40;;
86683;SDS011;77427;42.228;24.728;2024-03-22T13:00:59;3.35;;;2.08;;
86683;SDS011;77427;42.228;24.728;2024-03-22T13:03:26;4.30;;;2.55;;
86683;SDS011;77427;42.228;24.728;2024-03-22T13:05:51;3.97;;;2.13;;
86683;SDS011;77427;42.228;24.728;2024-03-22T13:08:17;3.95;;;2.25;;
86683;SDS011;77427;42.228;24.728;2024-03-22T13:10:44;3.92;;;2.42;;
86683;SDS011;77427;42.228;24.728;2024-03-22T13:13:09;3.42;;;2.17;;
86683;SDS011;77427;42.228;24.728;2024-03-22T13:15:35;4.25;;;2.30;;
86683;SDS011;77427;42.228;24.728;2024-03-22T13:18:03;3.88;;;2.20;;
86683;SDS011;77427;42.228;24.728;2024-03-22T13:20:28;5.07;;;2.42;;
86683;SDS011;77427;42.228;24.728;2024-03-22T13:22:54;5.65;;;2.42;;
86683;SDS011;77427;42.228;24.728;2024-03-22T13:25:20;4.25;;;2.63;;
86683;SDS011;77427;42.228;24.728;2024-03-22T13:27:45;4.47;;;2.22;;
86683;SDS011;77427;42.228;24.728;2024-03-22T13:30:11;3.50;;;2.17;;
86683;SDS011;77427;42.228;24.728;2024-03-22T13:32:37;4.53;;;2.20;;
86683;SDS011;77427;42.228;24.728;2024-03-22T13:35:04;3.92;;;1.95;;
86683;SDS011;77427;42.228;24.728;2024-03-22T13:37:30;3.03;;;2.08;;
86683;SDS011;77427;42.228;24.728;2024-03-22T13:39:55;3.53;;;2.50;;
86683;SDS011;77427;42.228;24.728;2024-03-22T13:42:21;4.65;;;2.10;;
86683;SDS011;77427;42.228;24.728;2024-03-22T13:44:46;5.28;;;2.38;;
86683;SDS011;77427;42.228;24.728;2024-03-22T13:47:12;4.85;;;2.05;;
86683;SDS011;77427;42.228;24.728;2024-03-22T13:49:37;4.53;;;2.35;;
86683;SDS011;77427;42.228;24.728;2024-03-22T13:52:07;3.75;;;2.22;;
86683;SDS011;77427;42.228;24.728;2024-03-22T13:54:32;4.18;;;2.03;;
86683;SDS011;77427;42.228;24.728;2024-03-22T13:56:58;3.55;;;2.20;;
86683;SDS011;77427;42.228;24.728;2024-03-22T13:59:25;2.97;;;1.88;;
86683;SDS011;77427;42.228;24.728;2024-03-22T14:01:51;4.03;;;2.00;;
86683;SDS011;77427;42.228;24.728;2024-03-22T14:04:17;4.40;;;2.17;;
86683;SDS011;77427;42.228;24.728;2024-03-22T14:06:44;3.78;;;2.00;;
86683;SDS011;77427;42.228;24.728;2024-03-22T14:09:10;4.07;;;2.35;;
86683;SDS011;77427;42.228;24.728;2024-03-22T14:11:38;4.03;;;2.13;;
86683;SDS011;77427;42.228;24.728;2024-03-22T14:14:08;4.00;;;2.20;;
86683;SDS011;77427;42.228;24.728;2024-03-22T14:16:36;4.05;;;2.30;;
86683;SDS011;77427;42.228;24.728;2024-03-22T14:19:02;4.53;;;2.53;;
86683;SDS011;77427;42.228;24.728;2024-03-22T14:21:28;4.25;;;2.50;;
86683;SDS011;77427;42.228;24.728;2024-03-22T14:23:54;4.53;;;2.53;;
86683;SDS011;77427;42.228;24.728;2024-03-22T14:26:20;4.65;;;2.50;;
86683;SDS011;77427;42.228;24.728;2024-03-22T14:28:46;5.05;;;2.55;;